Columbia (CAE/KCAE)

Map

Destinations

Information

Location
Columbia, SC
Local Time
06:33 / 6:33 am
GMT Time
10:33 / 10:33 am
Gates
Unassigned
No FAA reported delays
METAR KCAE 211029Z 00000KT 10SM FEW003 23/21 A3000 RMK AO2 T02330211
TAF KCAE 210830Z 2109/2206 VRB03KT P6SM SKC FM211600 17006KT P6SM SCT040 FM220200 20004KT P6SM SCT100